createdAt,value
2023-02-24T20:11:35.458Z,98249.33
2023-02-24T20:14:07.264Z,98249.60
2023-02-24T20:16:42.588Z,98249.34
2023-02-24T20:19:13.463Z,98246.05
2023-02-24T20:21:46.976Z,98240.86
2023-02-24T20:24:18.267Z,98238.83
2023-02-24T20:26:51.271Z,98236.67
2023-02-24T20:29:23.100Z,98233.93
2023-02-24T20:31:58.746Z,98232.55
2023-02-24T20:34:28.759Z,98232.78
2023-02-24T20:36:59.136Z,98232.58
2023-02-24T20:39:29.027Z,98229.25
2023-02-24T20:41:59.415Z,98230.61
2023-02-24T20:44:29.695Z,98231.26
2023-02-24T20:47:01.057Z,98225.78
2023-02-24T20:49:31.150Z,98219.80
2023-02-24T20:52:00.904Z,98218.94
2023-02-24T20:54:30.422Z,98215.16
2023-02-24T20:57:00.455Z,98213.77
2023-02-24T20:59:30.178Z,98210.11
2023-02-24T21:02:00.551Z,98204.19
2023-02-24T21:04:30.430Z,98199.80
2023-02-24T21:07:01.059Z,98196.84
2023-02-24T21:09:30.441Z,98194.30
2023-02-24T21:12:00.143Z,98191.08
2023-02-24T21:14:29.376Z,98189.53
2023-02-24T21:16:58.819Z,98185.70
2023-02-24T21:19:28.133Z,98187.48
2023-02-24T21:21:57.391Z,98178.54
2023-02-24T21:24:26.220Z,98175.56
2023-02-24T21:26:55.314Z,98175.36
2023-02-24T21:29:25.874Z,98171.13
2023-02-24T21:31:56.417Z,98172.02
2023-02-24T21:34:25.211Z,98172.59
2023-02-24T21:36:55.119Z,98166.36
2023-02-24T21:39:24.540Z,98162.95
2023-02-24T21:41:53.659Z,98159.28
2023-02-24T21:44:22.158Z,98150.14
2023-02-24T21:46:52.958Z,98148.52
2023-02-24T21:49:24.000Z,98143.16
2023-02-24T21:51:55.522Z,98144.63
2023-02-24T21:54:24.710Z,98139.02
2023-02-24T21:56:53.719Z,98134.45
2023-02-24T21:59:22.724Z,98131.43
2023-02-24T22:01:52.421Z,98129.27
2023-02-24T22:04:22.133Z,98127.30
2023-02-24T22:06:55.132Z,98125.32
2023-02-24T22:09:23.897Z,98126.88
2023-02-24T22:11:52.389Z,98123.67
2023-02-24T22:14:21.689Z,98123.05
2023-02-24T22:16:50.184Z,98122.71
2023-02-24T22:19:20.123Z,98120.39
2023-02-24T22:22:51.742Z,98120.10
2023-02-24T22:25:20.350Z,98117.57
2023-02-24T22:27:49.343Z,98117.04
2023-02-24T22:30:18.104Z,98114.76
2023-02-24T22:32:47.149Z,98115.50
2023-02-24T22:35:15.755Z,98111.52
2023-02-24T22:37:44.133Z,98112.55
2023-02-24T22:40:12.715Z,98108.31
2023-02-24T22:42:41.172Z,98105.30
2023-02-24T22:45:10.147Z,98102.36
2023-02-24T22:47:38.630Z,98103.23
2023-02-24T22:50:07.927Z,98099.62
2023-02-24T22:52:36.486Z,98098.14
2023-02-24T22:55:05.150Z,98094.27
2023-02-24T22:57:35.196Z,98093.37
2023-02-24T23:00:10.039Z,98093.20
2023-02-24T23:02:38.452Z,98089.77
2023-02-24T23:05:09.119Z,98088.99
2023-02-24T23:07:37.768Z,98084.77
2023-02-24T23:10:07.134Z,98082.73
2023-02-24T23:12:36.032Z,98079.52
2023-02-24T23:15:05.025Z,98075.94
2023-02-24T23:17:33.419Z,98077.13
2023-02-24T23:20:01.818Z,98073.67
2023-02-24T23:23:10.969Z,98074.74
2023-02-24T23:25:42.444Z,98072.64
2023-02-24T23:28:10.870Z,98072.64
2023-02-24T23:30:42.114Z,98071.32
2023-02-24T23:33:11.430Z,98068.70
2023-02-24T23:35:41.060Z,98062.92
2023-02-24T23:38:10.799Z,98062.33
2023-02-24T23:40:49.577Z,98059.05
2023-02-24T23:43:21.298Z,98050.91
2023-02-24T23:45:50.299Z,98052.42
2023-02-24T23:48:21.061Z,98049.11
2023-02-24T23:50:51.387Z,98045.71
2023-02-24T23:53:19.877Z,98042.66
2023-02-24T23:55:48.374Z,98045.98
2023-02-24T23:58:17.663Z,98043.61
